Bennettsville, SC (29512)

1:48 PM EDT on April 19, 2015 (GMT -0400)
Cottingham Creek | | Change Station
CLOSE
Current Station
Personal Weather Station
Location: Bennettsville, SC
Elevation: 143 ft
Nearby Weather Stations

Elev 143 ft 34.60 °N, 79.63 °W | Updated 1 minute ago

Rain
Rain
71.3 °F
Feels Like 71.3 °F
N
0.0
Wind Variable Wind from SSE
Gusts 3.0 mph

Today
High -- | Low -- °F
--% Chance of Precip.
Yesterday
High -- | Low -- °F
Precip. -- in
6:42 AM 7:53 PM
New Moon, 1% visible
Pressure 29.93 in
Visibility 5.0 miles
Clouds Scattered Clouds 1600 ft
Mostly Cloudy 3500 ft
Overcast 5000 ft
Dew Point 68 °F
Humidity 87%
Rainfall 0.11 in
Snow Depth Not available.
UV 3 out of 12
Pollen 3.00 out of 12
Air Quality Not available.
Flu Activity Local Activity
METAR KBBP 191735Z AUTO 10005KT 5SM RA SCT016 BKN035 OVC050 22/22 A2993 RMK AO2 P0010

More Conditions Fewer Conditions

Pressure 29.93 in
Visibility 5.0 miles
Clouds Scattered Clouds 1600 ft
Mostly Cloudy 3500 ft
Overcast 5000 ft
Dew Point 68 °F
Humidity 87%
Rainfall 0.11 in
Snow Depth Not available.
UV 3 out of 12
Pollen 3.00 out of 12
Air Quality Not available.
Flu Activity Local Activity
METAR KBBP 191735Z AUTO 10005KT 5SM RA SCT016 BKN035 OVC050 22/22 A2993 RMK AO2 P0010

More Conditions Fewer Conditions

10-Day Weather Forecast

Almanac

Astronomy

Apr. 19, 2015 Rise Set
Actual Time
Civil Twilight
Nautical Twilight
Astronomical Twilight
Moon
Length of Visible Light
Length of Day
Tomorrow will be .
, % of the Moon is Illuminated

Today's Extremes

State Highs State Lows

Community

WunderPhotos

Upload Photos

1,814,877 photos uploaded!

WunderBlogs® & News

Nearby

Air Quality

  Air Quality AQ Index Pollutant
Not available.

Snow Depth

Station Depth Elevation

Earthquake Activity

City Distance Mag. Time & Date
Minimum magnitude displayed is 2.5.

Coastal Water Temperatures

Place Temperature

Stations

Nearby Weather Stations

Station Location Temp. Windchill Dew Point Humidity Wind Precip. Elev Updated Type